Overview Statistics Trail Chart Weather Telemetry Raw packets
 

This is the latest recevied weather packets stored in our database for station/object OK5TVR-5. If no packets are shown the sender has not sent any weather packets the latest 10 day(s).

<< 25 26 27 28 29 30 31 >>
Time Temp. Humidity Pressure Rain* Wind** Luminosity Snow
1788124165 18.33° C 74% 1008.6 hPa 0 mm - 0 W/m² -
1788124164 - - - - - - -
1788123265 18.89° C 73% 1008.5 hPa 0 mm - 0 W/m² -
1788122365 18.89° C 71% 1008.4 hPa 0 mm - 0 W/m² -
1788121465 18.89° C 68% 1008.3 hPa 0 mm - 0 W/m² -
1788120565 18.89° C 71% 1008.5 hPa 0 mm - 0 W/m² -
1788119665 18.89° C 70% 1008.5 hPa 0 mm - 0 W/m² -
1788118765 18.89° C 66% 1008.5 hPa 0 mm - 0 W/m² -
1788117865 18.89° C 67% 1008.6 hPa 0 mm - 0 W/m² -
1788116966 19.44° C 66% 1008.4 hPa 0 mm - 0 W/m² -
1788116065 20° C 64% 1008.4 hPa 0 mm - 0 W/m² -
1788115165 21.11° C 61% 1008.1 hPa 0 mm - 0 W/m² -
1788114265 21.67° C 59% 1007.8 hPa 0 mm - 0 W/m² -
1788113365 22.22° C 56% 1007.4 hPa 0 mm - 0 W/m² -
1788112464 22.78° C 54% 1007.3 hPa 0 mm - 1 W/m² -
1788111564 22.78° C 54% 1007.1 hPa 0 mm - 3 W/m² -
1788110666 23.33° C 51% 1007 hPa 0 mm - 7 W/m² -
1788109764 23.33° C 50% 1007 hPa 0 mm - 11 W/m² -
1788108865 23.89° C 48% 1006.9 hPa 0 mm - 15 W/m² -
1788107968 25.56° C 44% 1006.6 hPa 0 mm - 43 W/m² -
1788107065 25.56° C 45% 1006.5 hPa 0 mm - 54 W/m² -
1788106165 25° C 46% 1006.7 hPa 0 mm - 39 W/m² -
1788105265 25.56° C 43% 1006.5 hPa 0 mm - 48 W/m² -
1788104365 25.56° C 43% 1006.4 hPa 0 mm - 68 W/m² -
1788103464 26.11° C 43% 1006.4 hPa 0 mm - 58 W/m² -

* Rain latest hour (hover to see other rain measurements)
** Current wind speed in m/s (hover to see current wind gust speed)